sensor_id;sensor_type;location;lat;lon;timestamp;P1;durP1;ratioP1;P2;durP2;ratioP2
16837;SDS011;19510;54.486;9.046;2022-09-09T00:04:37;27.92;;;14.95;;
16837;SDS011;19510;54.486;9.046;2022-09-09T00:07:15;27.75;;;15.23;;
16837;SDS011;19510;54.486;9.046;2022-09-09T00:12:45;27.52;;;15.27;;
16837;SDS011;19510;54.486;9.046;2022-09-09T00:15:22;29.30;;;16.35;;
16837;SDS011;19510;54.486;9.046;2022-09-09T00:18:24;30.58;;;16.10;;
16837;SDS011;19510;54.486;9.046;2022-09-09T00:21:06;32.45;;;16.38;;
16837;SDS011;19510;54.486;9.046;2022-09-09T00:23:35;30.92;;;16.60;;
16837;SDS011;19510;54.486;9.046;2022-09-09T00:28:45;33.00;;;17.67;;
16837;SDS011;19510;54.486;9.046;2022-09-09T00:31:25;28.20;;;15.95;;
16837;SDS011;19510;54.486;9.046;2022-09-09T00:33:53;33.47;;;16.75;;
16837;SDS011;19510;54.486;9.046;2022-09-09T00:36:26;31.55;;;17.25;;
16837;SDS011;19510;54.486;9.046;2022-09-09T00:38:56;29.75;;;15.95;;
16837;SDS011;19510;54.486;9.046;2022-09-09T00:49:39;31.95;;;19.30;;
16837;SDS011;19510;54.486;9.046;2022-09-09T00:57:34;33.38;;;19.13;;
16837;SDS011;19510;54.486;9.046;2022-09-09T01:10:59;32.95;;;19.48;;
16837;SDS011;19510;54.486;9.046;2022-09-09T01:13:36;33.60;;;20.15;;
16837;SDS011;19510;54.486;9.046;2022-09-09T01:16:04;34.35;;;19.73;;
16837;SDS011;19510;54.486;9.046;2022-09-09T01:18:40;29.35;;;18.33;;
16837;SDS011;19510;54.486;9.046;2022-09-09T01:24:00;29.88;;;18.23;;
16837;SDS011;19510;54.486;9.046;2022-09-09T01:26:39;31.83;;;18.15;;
16837;SDS011;19510;54.486;9.046;2022-09-09T01:29:17;30.13;;;18.13;;
16837;SDS011;19510;54.486;9.046;2022-09-09T01:34:50;29.05;;;16.73;;
16837;SDS011;19510;54.486;9.046;2022-09-09T01:37:17;30.45;;;17.45;;
16837;SDS011;19510;54.486;9.046;2022-09-09T01:39:43;29.20;;;17.80;;
16837;SDS011;19510;54.486;9.046;2022-09-09T01:42:14;27.25;;;16.95;;
16837;SDS011;19510;54.486;9.046;2022-09-09T01:44:41;31.80;;;17.55;;
16837;SDS011;19510;54.486;9.046;2022-09-09T01:47:06;29.27;;;17.10;;
16837;SDS011;19510;54.486;9.046;2022-09-09T01:49:34;28.63;;;16.35;;
16837;SDS011;19510;54.486;9.046;2022-09-09T01:52:05;27.30;;;16.58;;
16837;SDS011;19510;54.486;9.046;2022-09-09T01:54:31;28.35;;;16.95;;
16837;SDS011;19510;54.486;9.046;2022-09-09T01:57:06;31.92;;;17.83;;
16837;SDS011;19510;54.486;9.046;2022-09-09T02:02:32;33.20;;;17.58;;
16837;SDS011;19510;54.486;9.046;2022-09-09T02:08:00;30.23;;;17.67;;
16837;SDS011;19510;54.486;9.046;2022-09-09T02:10:56;27.65;;;16.95;;
16837;SDS011;19510;54.486;9.046;2022-09-09T02:13:29;29.90;;;17.35;;
16837;SDS011;19510;54.486;9.046;2022-09-09T02:16:05;30.75;;;17.13;;
16837;SDS011;19510;54.486;9.046;2022-09-09T02:18:41;32.45;;;17.38;;
16837;SDS011;19510;54.486;9.046;2022-09-09T02:21:28;32.70;;;17.83;;
16837;SDS011;19510;54.486;9.046;2022-09-09T02:23:55;31.23;;;17.10;;
16837;SDS011;19510;54.486;9.046;2022-09-09T02:26:24;33.08;;;17.45;;
16837;SDS011;19510;54.486;9.046;2022-09-09T02:28:51;30.83;;;16.67;;
16837;SDS011;19510;54.486;9.046;2022-09-09T02:31:21;33.10;;;18.05;;
16837;SDS011;19510;54.486;9.046;2022-09-09T02:33:54;29.85;;;16.58;;
16837;SDS011;19510;54.486;9.046;2022-09-09T02:36:26;31.83;;;17.48;;
16837;SDS011;19510;54.486;9.046;2022-09-09T02:38:54;36.50;;;18.58;;
16837;SDS011;19510;54.486;9.046;2022-09-09T02:41:24;41.40;;;17.98;;
16837;SDS011;19510;54.486;9.046;2022-09-09T02:43:56;38.05;;;18.33;;
16837;SDS011;19510;54.486;9.046;2022-09-09T02:52:18;30.08;;;15.98;;
16837;SDS011;19510;54.486;9.046;2022-09-09T02:54:50;33.83;;;17.00;;
16837;SDS011;19510;54.486;9.046;2022-09-09T02:57:23;31.05;;;16.48;;
16837;SDS011;19510;54.486;9.046;2022-09-09T02:59:52;30.88;;;16.08;;
16837;SDS011;19510;54.486;9.046;2022-09-09T03:02:21;33.17;;;17.00;;
16837;SDS011;19510;54.486;9.046;2022-09-09T03:04:47;31.67;;;16.58;;
16837;SDS011;19510;54.486;9.046;2022-09-09T03:07:16;31.95;;;17.13;;
16837;SDS011;19510;54.486;9.046;2022-09-09T03:09:46;34.95;;;16.88;;
16837;SDS011;19510;54.486;9.046;2022-09-09T03:12:12;32.35;;;16.35;;
16837;SDS011;19510;54.486;9.046;2022-09-09T03:14:38;35.70;;;17.25;;
16837;SDS011;19510;54.486;9.046;2022-09-09T03:17:07;29.33;;;16.05;;
16837;SDS011;19510;54.486;9.046;2022-09-09T03:19:34;30.52;;;16.33;;
16837;SDS011;19510;54.486;9.046;2022-09-09T03:22:00;32.72;;;16.40;;
16837;SDS011;19510;54.486;9.046;2022-09-09T03:24:25;31.90;;;15.88;;
16837;SDS011;19510;54.486;9.046;2022-09-09T03:26:53;34.53;;;16.88;;
16837;SDS011;19510;54.486;9.046;2022-09-09T03:29:21;32.90;;;16.10;;
16837;SDS011;19510;54.486;9.046;2022-09-09T03:31:46;32.42;;;16.80;;
16837;SDS011;19510;54.486;9.046;2022-09-09T03:34:12;34.47;;;15.35;;
16837;SDS011;19510;54.486;9.046;2022-09-09T03:36:38;30.83;;;15.57;;
16837;SDS011;19510;54.486;9.046;2022-09-09T03:39:06;32.58;;;16.27;;
16837;SDS011;19510;54.486;9.046;2022-09-09T03:41:33;35.40;;;17.23;;
16837;SDS011;19510;54.486;9.046;2022-09-09T03:43:59;36.45;;;16.08;;
16837;SDS011;19510;54.486;9.046;2022-09-09T03:46:25;36.25;;;15.90;;
16837;SDS011;19510;54.486;9.046;2022-09-09T03:48:53;36.45;;;16.27;;
16837;SDS011;19510;54.486;9.046;2022-09-09T03:51:19;34.33;;;16.52;;
16837;SDS011;19510;54.486;9.046;2022-09-09T03:53:46;30.80;;;16.58;;
16837;SDS011;19510;54.486;9.046;2022-09-09T03:56:12;36.30;;;15.73;;
16837;SDS011;19510;54.486;9.046;2022-09-09T03:58:37;45.17;;;16.20;;
16837;SDS011;19510;54.486;9.046;2022-09-09T04:01:05;36.60;;;15.55;;
16837;SDS011;19510;54.486;9.046;2022-09-09T04:03:35;38.85;;;16.02;;
16837;SDS011;19510;54.486;9.046;2022-09-09T04:06:02;40.55;;;16.17;;
16837;SDS011;19510;54.486;9.046;2022-09-09T04:08:29;46.80;;;15.32;;
16837;SDS011;19510;54.486;9.046;2022-09-09T04:10:58;25.38;;;13.95;;
16837;SDS011;19510;54.486;9.046;2022-09-09T04:13:25;49.97;;;14.30;;
16837;SDS011;19510;54.486;9.046;2022-09-09T04:15:52;32.17;;;14.02;;
16837;SDS011;19510;54.486;9.046;2022-09-09T04:18:21;33.65;;;13.95;;
16837;SDS011;19510;54.486;9.046;2022-09-09T04:20:47;32.42;;;13.20;;
16837;SDS011;19510;54.486;9.046;2022-09-09T04:23:15;36.00;;;13.35;;
16837;SDS011;19510;54.486;9.046;2022-09-09T04:25:45;33.28;;;13.18;;
16837;SDS011;19510;54.486;9.046;2022-09-09T04:28:12;30.83;;;12.65;;
16837;SDS011;19510;54.486;9.046;2022-09-09T04:30:38;38.08;;;12.45;;
16837;SDS011;19510;54.486;9.046;2022-09-09T04:33:05;45.80;;;11.80;;
16837;SDS011;19510;54.486;9.046;2022-09-09T04:35:31;36.75;;;11.63;;
16837;SDS011;19510;54.486;9.046;2022-09-09T04:37:57;34.65;;;11.63;;
16837;SDS011;19510;54.486;9.046;2022-09-09T04:40:22;33.58;;;11.88;;
16837;SDS011;19510;54.486;9.046;2022-09-09T04:42:48;38.58;;;13.05;;
16837;SDS011;19510;54.486;9.046;2022-09-09T04:45:15;25.83;;;12.48;;
16837;SDS011;19510;54.486;9.046;2022-09-09T04:47:41;40.75;;;12.77;;
16837;SDS011;19510;54.486;9.046;2022-09-09T04:50:09;55.42;;;14.32;;
16837;SDS011;19510;54.486;9.046;2022-09-09T04:52:35;51.47;;;13.88;;
16837;SDS011;19510;54.486;9.046;2022-09-09T04:55:01;52.33;;;13.93;;
16837;SDS011;19510;54.486;9.046;2022-09-09T04:57:26;39.85;;;13.32;;
16837;SDS011;19510;54.486;9.046;2022-09-09T04:59:56;40.83;;;14.25;;
16837;SDS011;19510;54.486;9.046;2022-09-09T05:02:23;36.58;;;13.57;;
16837;SDS011;19510;54.486;9.046;2022-09-09T05:04:48;46.97;;;13.48;;
16837;SDS011;19510;54.486;9.046;2022-09-09T05:07:14;34.70;;;13.65;;
16837;SDS011;19510;54.486;9.046;2022-09-09T05:09:40;28.00;;;13.55;;
16837;SDS011;19510;54.486;9.046;2022-09-09T05:12:07;33.25;;;13.98;;
16837;SDS011;19510;54.486;9.046;2022-09-09T05:14:33;30.77;;;11.85;;
16837;SDS011;19510;54.486;9.046;2022-09-09T05:17:00;19.63;;;9.57;;
16837;SDS011;19510;54.486;9.046;2022-09-09T05:19:25;27.33;;;10.30;;
16837;SDS011;19510;54.486;9.046;2022-09-09T05:21:51;25.65;;;12.15;;
16837;SDS011;19510;54.486;9.046;2022-09-09T05:24:16;18.77;;;9.35;;
16837;SDS011;19510;54.486;9.046;2022-09-09T05:26:42;46.65;;;14.18;;
16837;SDS011;19510;54.486;9.046;2022-09-09T05:29:10;27.20;;;13.13;;
16837;SDS011;19510;54.486;9.046;2022-09-09T05:31:36;25.92;;;9.50;;
16837;SDS011;19510;54.486;9.046;2022-09-09T05:34:01;22.27;;;10.85;;
16837;SDS011;19510;54.486;9.046;2022-09-09T05:36:27;25.92;;;13.00;;
16837;SDS011;19510;54.486;9.046;2022-09-09T05:38:53;17.08;;;10.65;;
16837;SDS011;19510;54.486;9.046;2022-09-09T05:41:23;20.15;;;12.38;;
16837;SDS011;19510;54.486;9.046;2022-09-09T05:43:49;16.23;;;10.25;;
16837;SDS011;19510;54.486;9.046;2022-09-09T05:46:16;23.52;;;11.63;;
16837;SDS011;19510;54.486;9.046;2022-09-09T05:48:44;22.63;;;12.32;;
16837;SDS011;19510;54.486;9.046;2022-09-09T05:51:12;22.02;;;12.43;;
16837;SDS011;19510;54.486;9.046;2022-09-09T05:53:42;20.73;;;12.80;;
16837;SDS011;19510;54.486;9.046;2022-09-09T05:56:19;26.75;;;12.73;;
16837;SDS011;19510;54.486;9.046;2022-09-09T05:58:50;22.58;;;12.13;;
16837;SDS011;19510;54.486;9.046;2022-09-09T06:01:17;24.63;;;10.95;;
16837;SDS011;19510;54.486;9.046;2022-09-09T06:03:47;29.98;;;11.85;;
16837;SDS011;19510;54.486;9.046;2022-09-09T06:06:18;27.92;;;12.00;;
16837;SDS011;19510;54.486;9.046;2022-09-09T06:08:51;25.42;;;12.60;;
16837;SDS011;19510;54.486;9.046;2022-09-09T06:11:19;33.58;;;13.82;;
16837;SDS011;19510;54.486;9.046;2022-09-09T06:13:47;40.85;;;13.80;;
16837;SDS011;19510;54.486;9.046;2022-09-09T06:16:18;35.58;;;13.48;;
16837;SDS011;19510;54.486;9.046;2022-09-09T06:18:48;35.58;;;13.05;;
16837;SDS011;19510;54.486;9.046;2022-09-09T06:21:16;28.23;;;13.73;;
16837;SDS011;19510;54.486;9.046;2022-09-09T06:23:43;29.58;;;16.05;;
16837;SDS011;19510;54.486;9.046;2022-09-09T06:28:49;28.70;;;14.65;;
16837;SDS011;19510;54.486;9.046;2022-09-09T06:31:16;30.55;;;14.20;;
16837;SDS011;19510;54.486;9.046;2022-09-09T06:33:46;28.25;;;15.57;;
16837;SDS011;19510;54.486;9.046;2022-09-09T06:36:14;32.83;;;14.85;;
16837;SDS011;19510;54.486;9.046;2022-09-09T06:38:41;29.92;;;16.13;;
16837;SDS011;19510;54.486;9.046;2022-09-09T06:41:08;34.47;;;15.13;;
16837;SDS011;19510;54.486;9.046;2022-09-09T06:43:35;35.63;;;16.98;;
16837;SDS011;19510;54.486;9.046;2022-09-09T06:46:09;32.58;;;16.42;;
16837;SDS011;19510;54.486;9.046;2022-09-09T06:48:35;33.13;;;17.00;;
16837;SDS011;19510;54.486;9.046;2022-09-09T06:53:34;37.33;;;17.38;;
16837;SDS011;19510;54.486;9.046;2022-09-09T06:58:36;36.38;;;18.23;;
16837;SDS011;19510;54.486;9.046;2022-09-09T07:01:08;33.97;;;17.92;;
16837;SDS011;19510;54.486;9.046;2022-09-09T07:03:34;36.40;;;19.08;;
16837;SDS011;19510;54.486;9.046;2022-09-09T07:06:00;37.17;;;18.30;;
16837;SDS011;19510;54.486;9.046;2022-09-09T07:08:26;35.72;;;19.00;;
16837;SDS011;19510;54.486;9.046;2022-09-09T07:10:53;46.22;;;25.80;;
16837;SDS011;19510;54.486;9.046;2022-09-09T07:13:28;36.30;;;20.10;;
16837;SDS011;19510;54.486;9.046;2022-09-09T07:15:53;38.03;;;20.63;;
16837;SDS011;19510;54.486;9.046;2022-09-09T07:18:29;36.03;;;19.58;;
16837;SDS011;19510;54.486;9.046;2022-09-09T07:20:55;34.90;;;20.00;;
16837;SDS011;19510;54.486;9.046;2022-09-09T07:23:21;37.58;;;19.85;;
16837;SDS011;19510;54.486;9.046;2022-09-09T07:25:48;39.28;;;19.70;;
16837;SDS011;19510;54.486;9.046;2022-09-09T07:28:15;39.25;;;19.88;;
16837;SDS011;19510;54.486;9.046;2022-09-09T07:30:40;39.83;;;21.50;;
16837;SDS011;19510;54.486;9.046;2022-09-09T07:33:07;40.28;;;21.77;;
16837;SDS011;19510;54.486;9.046;2022-09-09T07:35:34;42.78;;;20.63;;
16837;SDS011;19510;54.486;9.046;2022-09-09T07:38:01;39.53;;;21.63;;
16837;SDS011;19510;54.486;9.046;2022-09-09T07:40:29;39.45;;;20.58;;
16837;SDS011;19510;54.486;9.046;2022-09-09T07:42:55;41.53;;;20.52;;
16837;SDS011;19510;54.486;9.046;2022-09-09T07:45:22;41.72;;;19.55;;
16837;SDS011;19510;54.486;9.046;2022-09-09T07:47:51;34.97;;;20.67;;
16837;SDS011;19510;54.486;9.046;2022-09-09T07:50:17;39.38;;;20.55;;
16837;SDS011;19510;54.486;9.046;2022-09-09T07:52:44;36.00;;;19.08;;
16837;SDS011;19510;54.486;9.046;2022-09-09T07:55:10;34.50;;;19.02;;
16837;SDS011;19510;54.486;9.046;2022-09-09T07:57:35;32.80;;;19.92;;
16837;SDS011;19510;54.486;9.046;2022-09-09T08:00:02;38.50;;;21.60;;
16837;SDS011;19510;54.486;9.046;2022-09-09T08:02:28;37.15;;;19.95;;
16837;SDS011;19510;54.486;9.046;2022-09-09T08:04:54;33.70;;;19.58;;
16837;SDS011;19510;54.486;9.046;2022-09-09T08:07:21;35.33;;;20.58;;
16837;SDS011;19510;54.486;9.046;2022-09-09T08:09:48;37.25;;;22.13;;
16837;SDS011;19510;54.486;9.046;2022-09-09T08:12:14;32.13;;;19.63;;
16837;SDS011;19510;54.486;9.046;2022-09-09T08:14:41;32.80;;;20.60;;
16837;SDS011;19510;54.486;9.046;2022-09-09T08:17:07;37.45;;;21.35;;
16837;SDS011;19510;54.486;9.046;2022-09-09T08:19:33;36.45;;;20.25;;
16837;SDS011;19510;54.486;9.046;2022-09-09T08:22:02;36.70;;;20.33;;
16837;SDS011;19510;54.486;9.046;2022-09-09T08:24:28;35.38;;;20.15;;
16837;SDS011;19510;54.486;9.046;2022-09-09T08:26:54;30.70;;;19.33;;
16837;SDS011;19510;54.486;9.046;2022-09-09T08:29:21;34.22;;;20.05;;
16837;SDS011;19510;54.486;9.046;2022-09-09T08:34:15;27.15;;;18.02;;
16837;SDS011;19510;54.486;9.046;2022-09-09T08:36:41;36.67;;;19.27;;
16837;SDS011;19510;54.486;9.046;2022-09-09T08:39:09;25.60;;;16.02;;
16837;SDS011;19510;54.486;9.046;2022-09-09T08:49:52;24.73;;;14.18;;
16837;SDS011;19510;54.486;9.046;2022-09-09T08:52:49;25.10;;;14.13;;
16837;SDS011;19510;54.486;9.046;2022-09-09T08:58:17;19.95;;;14.10;;
16837;SDS011;19510;54.486;9.046;2022-09-09T09:06:29;22.42;;;14.95;;
16837;SDS011;19510;54.486;9.046;2022-09-09T09:11:51;23.40;;;15.15;;
16837;SDS011;19510;54.486;9.046;2022-09-09T09:14:27;23.45;;;14.68;;
16837;SDS011;19510;54.486;9.046;2022-09-09T09:19:28;25.05;;;17.35;;
16837;SDS011;19510;54.486;9.046;2022-09-09T09:24:56;28.05;;;16.80;;
16837;SDS011;19510;54.486;9.046;2022-09-09T09:27:35;23.60;;;15.95;;
16837;SDS011;19510;54.486;9.046;2022-09-09T09:30:14;23.15;;;15.93;;
16837;SDS011;19510;54.486;9.046;2022-09-09T09:32:45;31.42;;;17.95;;
16837;SDS011;19510;54.486;9.046;2022-09-09T09:35:30;26.00;;;16.67;;
16837;SDS011;19510;54.486;9.046;2022-09-09T09:37:56;27.17;;;16.73;;
16837;SDS011;19510;54.486;9.046;2022-09-09T09:40:22;22.80;;;15.75;;
16837;SDS011;19510;54.486;9.046;2022-09-09T09:48:03;25.48;;;17.58;;
16837;SDS011;19510;54.486;9.046;2022-09-09T09:50:31;27.42;;;18.88;;
16837;SDS011;19510;54.486;9.046;2022-09-09T09:52:59;24.90;;;17.70;;
16837;SDS011;19510;54.486;9.046;2022-09-09T09:55:29;22.77;;;16.58;;
16837;SDS011;19510;54.486;9.046;2022-09-09T09:58:01;22.70;;;16.42;;
16837;SDS011;19510;54.486;9.046;2022-09-09T10:00:28;27.05;;;18.88;;
16837;SDS011;19510;54.486;9.046;2022-09-09T10:02:54;26.45;;;18.05;;
16837;SDS011;19510;54.486;9.046;2022-09-09T10:05:22;27.00;;;18.65;;
16837;SDS011;19510;54.486;9.046;2022-09-09T10:10:42;22.83;;;16.33;;
16837;SDS011;19510;54.486;9.046;2022-09-09T10:13:25;19.33;;;14.55;;
16837;SDS011;19510;54.486;9.046;2022-09-09T10:27:33;20.02;;;14.18;;
16837;SDS011;19510;54.486;9.046;2022-09-09T10:32:45;23.08;;;13.55;;
16837;SDS011;19510;54.486;9.046;2022-09-09T10:35:27;19.75;;;13.38;;
16837;SDS011;19510;54.486;9.046;2022-09-09T10:43:37;16.42;;;11.65;;
16837;SDS011;19510;54.486;9.046;2022-09-09T10:56:34;11.52;;;9.85;;
16837;SDS011;19510;54.486;9.046;2022-09-09T10:59:02;13.25;;;9.57;;
16837;SDS011;19510;54.486;9.046;2022-09-09T11:01:43;13.77;;;8.85;;
16837;SDS011;19510;54.486;9.046;2022-09-09T11:04:22;11.60;;;8.80;;
16837;SDS011;19510;54.486;9.046;2022-09-09T11:06:56;11.98;;;7.93;;
16837;SDS011;19510;54.486;9.046;2022-09-09T11:09:44;10.52;;;7.35;;
16837;SDS011;19510;54.486;9.046;2022-09-09T11:12:15;10.25;;;7.72;;
16837;SDS011;19510;54.486;9.046;2022-09-09T11:14:54;9.27;;;6.85;;
16837;SDS011;19510;54.486;9.046;2022-09-09T11:17:30;13.15;;;7.68;;
16837;SDS011;19510;54.486;9.046;2022-09-09T11:20:05;7.47;;;5.18;;
16837;SDS011;19510;54.486;9.046;2022-09-09T11:22:48;6.95;;;4.88;;
16837;SDS011;19510;54.486;9.046;2022-09-09T11:25:35;5.57;;;4.10;;
16837;SDS011;19510;54.486;9.046;2022-09-09T11:33:58;6.53;;;4.53;;
16837;SDS011;19510;54.486;9.046;2022-09-09T11:42:17;6.28;;;3.35;;
16837;SDS011;19510;54.486;9.046;2022-09-09T11:47:56;6.10;;;3.25;;
16837;SDS011;19510;54.486;9.046;2022-09-09T11:52:51;2.28;;;2.08;;
16837;SDS011;19510;54.486;9.046;2022-09-09T11:55:29;4.60;;;2.05;;
16837;SDS011;19510;54.486;9.046;2022-09-09T11:58:14;3.08;;;1.75;;
16837;SDS011;19510;54.486;9.046;2022-09-09T12:00:47;4.50;;;2.45;;
16837;SDS011;19510;54.486;9.046;2022-09-09T12:06:11;4.28;;;2.35;;
16837;SDS011;19510;54.486;9.046;2022-09-09T12:08:57;5.75;;;2.95;;
16837;SDS011;19510;54.486;9.046;2022-09-09T12:11:31;4.80;;;2.85;;
16837;SDS011;19510;54.486;9.046;2022-09-09T12:13:58;3.95;;;2.60;;
16837;SDS011;19510;54.486;9.046;2022-09-09T12:16:28;6.60;;;3.35;;
16837;SDS011;19510;54.486;9.046;2022-09-09T12:24:08;3.65;;;2.65;;
16837;SDS011;19510;54.486;9.046;2022-09-09T12:26:57;4.93;;;2.65;;
16837;SDS011;19510;54.486;9.046;2022-09-09T12:32:27;4.60;;;2.30;;
16837;SDS011;19510;54.486;9.046;2022-09-09T12:37:50;3.72;;;1.60;;
16837;SDS011;19510;54.486;9.046;2022-09-09T12:40:27;3.13;;;1.20;;
16837;SDS011;19510;54.486;9.046;2022-09-09T12:43:00;4.30;;;1.25;;
16837;SDS011;19510;54.486;9.046;2022-09-09T12:45:28;3.58;;;0.93;;
16837;SDS011;19510;54.486;9.046;2022-09-09T12:47:58;1.25;;;0.60;;
16837;SDS011;19510;54.486;9.046;2022-09-09T12:50:37;3.90;;;1.13;;
16837;SDS011;19510;54.486;9.046;2022-09-09T12:55:52;1.75;;;0.73;;
16837;SDS011;19510;54.486;9.046;2022-09-09T12:58:26;1.38;;;0.45;;
16837;SDS011;19510;54.486;9.046;2022-09-09T13:00:57;1.42;;;0.47;;
16837;SDS011;19510;54.486;9.046;2022-09-09T13:03:25;1.58;;;0.68;;
16837;SDS011;19510;54.486;9.046;2022-09-09T13:05:52;1.85;;;0.50;;
16837;SDS011;19510;54.486;9.046;2022-09-09T13:08:19;2.00;;;0.60;;
16837;SDS011;19510;54.486;9.046;2022-09-09T13:11:01;1.35;;;0.43;;
16837;SDS011;19510;54.486;9.046;2022-09-09T13:13:38;0.57;;;0.57;;
16837;SDS011;19510;54.486;9.046;2022-09-09T13:16:06;0.85;;;0.30;;
16837;SDS011;19510;54.486;9.046;2022-09-09T13:18:43;0.73;;;0.70;;
16837;SDS011;19510;54.486;9.046;2022-09-09T13:21:11;0.77;;;0.50;;
16837;SDS011;19510;54.486;9.046;2022-09-09T13:23:39;1.90;;;0.50;;
16837;SDS011;19510;54.486;9.046;2022-09-09T13:26:26;1.58;;;0.55;;
16837;SDS011;19510;54.486;9.046;2022-09-09T13:28:52;1.40;;;0.60;;
16837;SDS011;19510;54.486;9.046;2022-09-09T13:31:28;1.65;;;0.50;;
16837;SDS011;19510;54.486;9.046;2022-09-09T13:33:57;0.98;;;0.88;;
16837;SDS011;19510;54.486;9.046;2022-09-09T13:36:35;1.60;;;0.70;;
16837;SDS011;19510;54.486;9.046;2022-09-09T13:39:04;1.15;;;0.50;;
16837;SDS011;19510;54.486;9.046;2022-09-09T13:41:42;0.50;;;0.50;;
16837;SDS011;19510;54.486;9.046;2022-09-09T13:44:24;2.05;;;0.55;;
16837;SDS011;19510;54.486;9.046;2022-09-09T13:49:26;2.20;;;1.10;;
16837;SDS011;19510;54.486;9.046;2022-09-09T13:52:03;0.68;;;0.65;;
16837;SDS011;19510;54.486;9.046;2022-09-09T13:54:32;1.60;;;0.60;;
16837;SDS011;19510;54.486;9.046;2022-09-09T13:57:00;2.45;;;0.77;;
16837;SDS011;19510;54.486;9.046;2022-09-09T13:59:26;1.30;;;0.70;;
16837;SDS011;19510;54.486;9.046;2022-09-09T14:01:52;2.25;;;0.57;;
16837;SDS011;19510;54.486;9.046;2022-09-09T14:04:20;1.48;;;0.50;;
16837;SDS011;19510;54.486;9.046;2022-09-09T14:06:49;2.42;;;1.38;;
16837;SDS011;19510;54.486;9.046;2022-09-09T14:09:16;2.25;;;0.88;;
16837;SDS011;19510;54.486;9.046;2022-09-09T14:11:43;0.88;;;0.60;;
16837;SDS011;19510;54.486;9.046;2022-09-09T14:14:10;1.13;;;0.60;;
16837;SDS011;19510;54.486;9.046;2022-09-09T14:16:38;1.65;;;0.50;;
16837;SDS011;19510;54.486;9.046;2022-09-09T14:19:04;1.52;;;0.60;;
16837;SDS011;19510;54.486;9.046;2022-09-09T14:21:30;1.38;;;0.60;;
16837;SDS011;19510;54.486;9.046;2022-09-09T14:24:00;1.40;;;0.60;;
16837;SDS011;19510;54.486;9.046;2022-09-09T14:26:29;2.35;;;0.65;;
16837;SDS011;19510;54.486;9.046;2022-09-09T14:28:55;1.85;;;0.40;;
16837;SDS011;19510;54.486;9.046;2022-09-09T14:31:22;0.80;;;0.60;;
16837;SDS011;19510;54.486;9.046;2022-09-09T14:33:50;2.10;;;0.90;;
16837;SDS011;19510;54.486;9.046;2022-09-09T14:36:20;0.75;;;0.50;;
16837;SDS011;19510;54.486;9.046;2022-09-09T14:38:46;2.38;;;0.77;;
16837;SDS011;19510;54.486;9.046;2022-09-09T14:41:13;0.85;;;0.50;;
16837;SDS011;19510;54.486;9.046;2022-09-09T14:43:44;1.45;;;0.60;;
16837;SDS011;19510;54.486;9.046;2022-09-09T14:46:11;1.63;;;0.70;;
16837;SDS011;19510;54.486;9.046;2022-09-09T14:48:39;0.55;;;0.55;;
16837;SDS011;19510;54.486;9.046;2022-09-09T14:51:29;1.20;;;0.45;;
16837;SDS011;19510;54.486;9.046;2022-09-09T14:53:55;0.93;;;0.60;;
16837;SDS011;19510;54.486;9.046;2022-09-09T14:56:24;3.58;;;0.60;;
16837;SDS011;19510;54.486;9.046;2022-09-09T14:58:53;0.90;;;0.38;;
16837;SDS011;19510;54.486;9.046;2022-09-09T15:01:20;1.35;;;0.60;;
16837;SDS011;19510;54.486;9.046;2022-09-09T15:03:51;3.03;;;0.98;;
16837;SDS011;19510;54.486;9.046;2022-09-09T15:06:23;0.80;;;0.65;;
16837;SDS011;19510;54.486;9.046;2022-09-09T15:08:50;12.68;;;9.48;;
16837;SDS011;19510;54.486;9.046;2022-09-09T15:11:17;1.95;;;1.23;;
16837;SDS011;19510;54.486;9.046;2022-09-09T15:13:46;1.63;;;0.73;;
16837;SDS011;19510;54.486;9.046;2022-09-09T15:16:13;1.25;;;0.93;;
16837;SDS011;19510;54.486;9.046;2022-09-09T15:18:43;3.92;;;1.00;;
16837;SDS011;19510;54.486;9.046;2022-09-09T15:21:13;2.92;;;0.95;;
16837;SDS011;19510;54.486;9.046;2022-09-09T15:23:46;1.30;;;0.93;;
16837;SDS011;19510;54.486;9.046;2022-09-09T15:26:15;2.15;;;1.08;;
16837;SDS011;19510;54.486;9.046;2022-09-09T15:28:42;3.33;;;1.40;;
16837;SDS011;19510;54.486;9.046;2022-09-09T15:31:11;4.13;;;1.40;;
16837;SDS011;19510;54.486;9.046;2022-09-09T15:33:48;3.42;;;1.60;;
16837;SDS011;19510;54.486;9.046;2022-09-09T15:36:17;4.40;;;1.58;;
16837;SDS011;19510;54.486;9.046;2022-09-09T15:38:50;7.20;;;1.67;;
16837;SDS011;19510;54.486;9.046;2022-09-09T15:41:17;3.38;;;1.80;;
16837;SDS011;19510;54.486;9.046;2022-09-09T15:43:45;4.45;;;1.77;;
16837;SDS011;19510;54.486;9.046;2022-09-09T15:48:49;2.90;;;1.67;;
16837;SDS011;19510;54.486;9.046;2022-09-09T15:51:15;2.97;;;1.50;;
16837;SDS011;19510;54.486;9.046;2022-09-09T15:53:41;3.58;;;1.30;;
16837;SDS011;19510;54.486;9.046;2022-09-09T15:56:10;2.55;;;1.10;;
16837;SDS011;19510;54.486;9.046;2022-09-09T15:58:36;2.38;;;1.50;;
16837;SDS011;19510;54.486;9.046;2022-09-09T16:01:06;2.85;;;1.60;;
16837;SDS011;19510;54.486;9.046;2022-09-09T16:03:37;1.45;;;1.20;;
16837;SDS011;19510;54.486;9.046;2022-09-09T16:06:07;2.38;;;1.50;;
16837;SDS011;19510;54.486;9.046;2022-09-09T16:08:38;3.55;;;1.55;;
16837;SDS011;19510;54.486;9.046;2022-09-09T16:11:07;4.15;;;1.70;;
16837;SDS011;19510;54.486;9.046;2022-09-09T16:13:35;6.07;;;1.70;;
16837;SDS011;19510;54.486;9.046;2022-09-09T16:16:04;3.25;;;1.88;;
16837;SDS011;19510;54.486;9.046;2022-09-09T16:18:41;3.10;;;1.40;;
16837;SDS011;19510;54.486;9.046;2022-09-09T16:23:51;3.72;;;1.45;;
16837;SDS011;19510;54.486;9.046;2022-09-09T16:26:24;4.10;;;1.50;;
16837;SDS011;19510;54.486;9.046;2022-09-09T16:28:50;3.22;;;1.30;;
16837;SDS011;19510;54.486;9.046;2022-09-09T16:31:17;2.17;;;1.60;;
16837;SDS011;19510;54.486;9.046;2022-09-09T16:33:47;2.85;;;2.10;;
16837;SDS011;19510;54.486;9.046;2022-09-09T16:36:17;5.55;;;3.97;;
16837;SDS011;19510;54.486;9.046;2022-09-09T16:38:55;3.88;;;2.17;;
16837;SDS011;19510;54.486;9.046;2022-09-09T16:41:23;3.80;;;1.77;;
16837;SDS011;19510;54.486;9.046;2022-09-09T16:43:55;5.32;;;2.65;;
16837;SDS011;19510;54.486;9.046;2022-09-09T16:46:27;3.50;;;2.17;;
16837;SDS011;19510;54.486;9.046;2022-09-09T16:48:58;5.88;;;4.75;;
16837;SDS011;19510;54.486;9.046;2022-09-09T16:51:30;8.88;;;5.80;;
16837;SDS011;19510;54.486;9.046;2022-09-09T16:53:59;3.67;;;2.88;;
16837;SDS011;19510;54.486;9.046;2022-09-09T16:56:27;4.10;;;2.10;;
16837;SDS011;19510;54.486;9.046;2022-09-09T16:58:58;3.45;;;2.40;;
16837;SDS011;19510;54.486;9.046;2022-09-09T17:01:26;2.45;;;2.25;;
16837;SDS011;19510;54.486;9.046;2022-09-09T17:04:00;2.17;;;1.75;;
16837;SDS011;19510;54.486;9.046;2022-09-09T17:06:28;3.28;;;1.95;;
16837;SDS011;19510;54.486;9.046;2022-09-09T17:08:55;2.58;;;2.13;;
16837;SDS011;19510;54.486;9.046;2022-09-09T17:11:22;2.85;;;1.80;;
16837;SDS011;19510;54.486;9.046;2022-09-09T17:13:50;3.40;;;1.77;;
16837;SDS011;19510;54.486;9.046;2022-09-09T17:16:18;4.57;;;2.10;;
16837;SDS011;19510;54.486;9.046;2022-09-09T17:18:48;4.13;;;2.33;;
16837;SDS011;19510;54.486;9.046;2022-09-09T17:21:16;4.47;;;1.90;;
16837;SDS011;19510;54.486;9.046;2022-09-09T17:23:44;2.78;;;2.22;;
16837;SDS011;19510;54.486;9.046;2022-09-09T17:26:15;2.80;;;2.50;;
16837;SDS011;19510;54.486;9.046;2022-09-09T17:28:45;4.55;;;2.40;;
16837;SDS011;19510;54.486;9.046;2022-09-09T17:31:12;4.00;;;2.58;;
16837;SDS011;19510;54.486;9.046;2022-09-09T17:33:40;6.57;;;4.30;;